ADDS METAR Data INFO
IDs: Format: Raw Decoded Include TAF

Data at: 1119 UTC 21 Feb 2018

PAGN 201456Z AUTO 00000KT 10SM CLR M05/M06 A3036 RMK AO2 SLP270 T10501061 50001 FZRANO
PAGN 201356Z AUTO 00000KT 10SM CLR M05/M06 A3036 RMK AO2 SLP270 T10501056 FZRANO
PAGN 201256Z AUTO 07003KT 10SM CLR M04/M06 A3036 RMK AO2 SLP270 T10441056 FZRANO
PAGN 201056Z AUTO 00000KT 10SM CLR M04/M05 A3035 RMK AO2 SLP265 T10441050 FZRANO
PAGN 200956Z AUTO 00000KT 10SM CLR M04/M05 A3033 RMK AO2 SLP261 T10391050 FZRANO
PAGN 200856Z AUTO 00000KT 10SM CLR M04/M04 A3033 RMK AO2 SLP260 T10391044 400221039 51009 FZRANO
PAGN 200819Z AUTO 00000KT 10SM FEW004 M04/M04 A3033 RMK AO2 FZRANO
PAGN 200756Z AUTO 00000KT 10SM CLR M04/M04 A3032 RMK AO2 SLP257 T10391044 FZRANO
PAGN 200656Z AUTO 00000KT 10SM CLR M03/M04 A3032 RMK AO2 SLP255 T10281039 FZRANO
PAGN 200556Z AUTO 00000KT 10SM CLR M03/M04 A3030 RMK AO2 SLP251 6//// T10281039 10022 21028 53014 FZRANO
PAGN 200456Z AUTO 00000KT 10SM CLR M02/M03 A3029 RMK AO2 SLP245 T10171028 FZRANO
PAGN 200356Z AUTO 00000KT 10SM CLR 00/M02 A3027 RMK AO2 SLP239 T00001022 FZRANO
PAGN 200256Z AUTO 06003KT 10SM CLR 01/M02 A3026 RMK AO2 SLP237 T00111022 53003 FZRANO
PAGN 200056Z AUTO VRB03KT 10SM CLR 02/M04 A3025 RMK AO2 SLP232 T00171039 FZRANO
PAGN 192356Z AUTO 00000KT 9SM CLR 01/M04 A3026 RMK AO2 SLP234 T00111039 10017 21017 56001 FZRANO